This is the latest recevied weather packets stored in our database for station/object WX4SGA. If no packets are shown the sender has not sent any weather packets the latest 10 day(s).
| Time | Temp. | Humidity | Pressure | Rain* | Wind** | Luminosity | Snow |
|---|---|---|---|---|---|---|---|
| 1777673106 | 18.33° C | 85% | 1011.9 hPa | 0 mm | - | 35 W/m² | - |
| 1777672803 | 18.33° C | 84% | 1011.9 hPa | 0 mm | - | 36 W/m² | - |
| 1777672499 | 18.33° C | 85% | 1011.9 hPa | 0 mm | - | 39 W/m² | - |
| 1777672195 | 18.33° C | 84% | 1011.5 hPa | 0 mm | - | 52 W/m² | - |
| 1777671890 | 18.33° C | 85% | 1011.9 hPa | 0 mm | - | 61 W/m² | - |
| 1777671586 | 18.33° C | 85% | 1011.5 hPa | 0 mm | - | 71 W/m² | - |
| 1777671283 | 18.33° C | 84% | 1011.5 hPa | 0 mm | - | 86 W/m² | - |
| 1777670978 | 18.89° C | 84% | 1011.5 hPa | 0 mm | - | 94 W/m² | - |
| 1777670676 | 18.89° C | 84% | 1011.9 hPa | 0 mm | - | 85 W/m² | - |
| 1777670372 | 18.89° C | 81% | 1011.9 hPa | 0 mm | - | 74 W/m² | - |
| 1777670070 | 18.89° C | 80% | 1011.9 hPa | 0 mm | - | 60 W/m² | - |
| 1777669767 | 18.89° C | 79% | 1011.9 hPa | 0 mm | - | 65 W/m² | - |
| 1777669464 | 18.89° C | 78% | 1011.9 hPa | 0 mm | - | 105 W/m² | - |
| 1777669160 | 19.44° C | 77% | 1011.9 hPa | 0 mm | - | 103 W/m² | - |
| 1777668857 | 19.44° C | 78% | 1011.9 hPa | 0 mm | - | 66 W/m² | - |
| 1777668554 | 19.44° C | 77% | 1012.2 hPa | 0 mm | - | 75 W/m² | - |
| 1777668250 | 18.89° C | 79% | 1011.9 hPa | 0 mm | - | 98 W/m² | - |
| 1777667946 | 19.44° C | 78% | 1011.9 hPa | 0 mm | - | 95 W/m² | - |
| 1777667644 | 18.89° C | 79% | 1011.9 hPa | 0 mm | - | 68 W/m² | - |
| 1777667341 | 19.44° C | 77% | 1011.9 hPa | 0 mm | - | 139 W/m² | - |
| 1777667038 | 19.44° C | 75% | 1011.9 hPa | 0 mm | - | 163 W/m² | - |
| 1777666735 | 20° C | 71% | 1012.2 hPa | 0 mm | - | 190 W/m² | - |
| 1777666431 | 20° C | 69% | 1012.2 hPa | 0 mm | - | 74 W/m² | - |
| 1777666128 | 21.11° C | 66% | 1011.9 hPa | 0 mm | - | 88 W/m² | - |
| 1777665825 | 21.11° C | 65% | 1011.9 hPa | 0 mm | - | 167 W/m² | - |
* Rain latest hour (hover to see other rain measurements)
** Current wind speed in m/s (hover to see current wind gust speed)